sensor_id;sensor_type;location;lat;lon;timestamp;P1;durP1;ratioP1;P2;durP2;ratioP2
12802;SDS011;6465;42.700;23.278;2024-03-17T00:00:20;19.20;;;15.87;;
12802;SDS011;6465;42.700;23.278;2024-03-17T00:02:47;17.83;;;15.93;;
12802;SDS011;6465;42.700;23.278;2024-03-17T00:05:14;18.00;;;15.03;;
12802;SDS011;6465;42.700;23.278;2024-03-17T00:07:41;18.80;;;15.43;;
12802;SDS011;6465;42.700;23.278;2024-03-17T00:10:08;21.47;;;15.90;;
12802;SDS011;6465;42.700;23.278;2024-03-17T00:12:35;20.03;;;15.83;;
12802;SDS011;6465;42.700;23.278;2024-03-17T00:15:03;19.00;;;15.93;;
12802;SDS011;6465;42.700;23.278;2024-03-17T00:17:29;20.83;;;15.83;;
12802;SDS011;6465;42.700;23.278;2024-03-17T00:19:56;19.43;;;16.43;;
12802;SDS011;6465;42.700;23.278;2024-03-17T00:22:22;19.03;;;16.20;;
12802;SDS011;6465;42.700;23.278;2024-03-17T00:24:51;21.30;;;17.23;;
12802;SDS011;6465;42.700;23.278;2024-03-17T00:27:16;19.13;;;17.13;;
12802;SDS011;6465;42.700;23.278;2024-03-17T00:29:44;19.87;;;16.07;;
12802;SDS011;6465;42.700;23.278;2024-03-17T00:32:10;18.73;;;15.53;;
12802;SDS011;6465;42.700;23.278;2024-03-17T00:34:37;18.83;;;15.57;;
12802;SDS011;6465;42.700;23.278;2024-03-17T00:37:03;18.23;;;15.90;;
12802;SDS011;6465;42.700;23.278;2024-03-17T00:39:30;17.50;;;15.67;;
12802;SDS011;6465;42.700;23.278;2024-03-17T00:41:58;17.97;;;15.70;;
12802;SDS011;6465;42.700;23.278;2024-03-17T00:44:26;17.67;;;15.87;;
12802;SDS011;6465;42.700;23.278;2024-03-17T00:46:52;18.07;;;15.23;;
12802;SDS011;6465;42.700;23.278;2024-03-17T00:49:19;17.20;;;15.20;;
12802;SDS011;6465;42.700;23.278;2024-03-17T00:51:45;21.67;;;15.37;;
12802;SDS011;6465;42.700;23.278;2024-03-17T00:54:14;20.73;;;15.57;;
12802;SDS011;6465;42.700;23.278;2024-03-17T00:56:40;19.40;;;17.00;;
12802;SDS011;6465;42.700;23.278;2024-03-17T00:59:08;20.83;;;16.90;;
12802;SDS011;6465;42.700;23.278;2024-03-17T01:01:34;20.27;;;16.73;;
12802;SDS011;6465;42.700;23.278;2024-03-17T01:04:01;19.70;;;16.07;;
12802;SDS011;6465;42.700;23.278;2024-03-17T01:06:28;18.37;;;15.30;;
12802;SDS011;6465;42.700;23.278;2024-03-17T01:08:54;18.20;;;15.27;;
12802;SDS011;6465;42.700;23.278;2024-03-17T01:11:21;23.00;;;16.63;;
12802;SDS011;6465;42.700;23.278;2024-03-17T01:13:47;18.90;;;14.33;;
12802;SDS011;6465;42.700;23.278;2024-03-17T01:16:15;18.97;;;16.17;;
12802;SDS011;6465;42.700;23.278;2024-03-17T01:18:41;17.07;;;15.27;;
12802;SDS011;6465;42.700;23.278;2024-03-17T01:21:10;20.77;;;16.23;;
12802;SDS011;6465;42.700;23.278;2024-03-17T01:23:37;20.67;;;17.03;;
12802;SDS011;6465;42.700;23.278;2024-03-17T01:26:04;18.87;;;16.53;;
12802;SDS011;6465;42.700;23.278;2024-03-17T01:28:31;21.37;;;16.53;;
12802;SDS011;6465;42.700;23.278;2024-03-17T01:30:57;22.87;;;18.67;;
12802;SDS011;6465;42.700;23.278;2024-03-17T01:33:25;24.73;;;18.70;;
12802;SDS011;6465;42.700;23.278;2024-03-17T01:35:51;25.80;;;19.33;;
12802;SDS011;6465;42.700;23.278;2024-03-17T01:38:18;22.33;;;17.97;;
12802;SDS011;6465;42.700;23.278;2024-03-17T01:40:44;21.10;;;18.23;;
12802;SDS011;6465;42.700;23.278;2024-03-17T01:43:12;21.03;;;18.30;;
12802;SDS011;6465;42.700;23.278;2024-03-17T01:45:38;21.23;;;17.63;;
12802;SDS011;6465;42.700;23.278;2024-03-17T01:48:06;19.97;;;16.40;;
12802;SDS011;6465;42.700;23.278;2024-03-17T01:50:40;17.77;;;15.40;;
12802;SDS011;6465;42.700;23.278;2024-03-17T01:53:08;21.37;;;16.53;;
12802;SDS011;6465;42.700;23.278;2024-03-17T01:55:36;18.30;;;15.60;;
12802;SDS011;6465;42.700;23.278;2024-03-17T01:58:04;19.47;;;15.07;;
12802;SDS011;6465;42.700;23.278;2024-03-17T02:00:32;20.57;;;15.53;;
12802;SDS011;6465;42.700;23.278;2024-03-17T02:03:01;19.57;;;16.67;;
12802;SDS011;6465;42.700;23.278;2024-03-17T02:05:27;19.70;;;17.07;;
12802;SDS011;6465;42.700;23.278;2024-03-17T02:07:56;19.87;;;17.20;;
12802;SDS011;6465;42.700;23.278;2024-03-17T02:10:22;19.87;;;17.23;;
12802;SDS011;6465;42.700;23.278;2024-03-17T02:12:50;21.67;;;16.90;;
12802;SDS011;6465;42.700;23.278;2024-03-17T02:15:16;19.87;;;15.37;;
12802;SDS011;6465;42.700;23.278;2024-03-17T02:17:43;18.43;;;14.93;;
12802;SDS011;6465;42.700;23.278;2024-03-17T02:20:09;18.90;;;15.27;;
12802;SDS011;6465;42.700;23.278;2024-03-17T02:22:38;18.37;;;14.03;;
12802;SDS011;6465;42.700;23.278;2024-03-17T02:25:05;16.43;;;14.30;;
12802;SDS011;6465;42.700;23.278;2024-03-17T02:27:33;21.40;;;15.00;;
12802;SDS011;6465;42.700;23.278;2024-03-17T02:29:59;19.37;;;15.60;;
12802;SDS011;6465;42.700;23.278;2024-03-17T02:32:26;22.23;;;16.80;;
12802;SDS011;6465;42.700;23.278;2024-03-17T02:34:52;22.63;;;17.20;;
12802;SDS011;6465;42.700;23.278;2024-03-17T02:37:20;21.10;;;16.97;;
12802;SDS011;6465;42.700;23.278;2024-03-17T02:39:47;21.70;;;17.43;;
12802;SDS011;6465;42.700;23.278;2024-03-17T02:42:14;24.27;;;18.83;;
12802;SDS011;6465;42.700;23.278;2024-03-17T02:44:41;28.60;;;21.37;;
12802;SDS011;6465;42.700;23.278;2024-03-17T02:47:08;26.80;;;21.47;;
12802;SDS011;6465;42.700;23.278;2024-03-17T02:49:35;27.63;;;23.40;;
12802;SDS011;6465;42.700;23.278;2024-03-17T02:52:04;34.13;;;24.73;;
12802;SDS011;6465;42.700;23.278;2024-03-17T02:54:33;31.90;;;24.10;;
12802;SDS011;6465;42.700;23.278;2024-03-17T02:57:02;31.53;;;24.07;;
12802;SDS011;6465;42.700;23.278;2024-03-17T02:59:29;32.60;;;24.50;;
12802;SDS011;6465;42.700;23.278;2024-03-17T03:01:57;32.93;;;24.77;;
12802;SDS011;6465;42.700;23.278;2024-03-17T03:04:25;33.00;;;24.33;;
12802;SDS011;6465;42.700;23.278;2024-03-17T03:06:53;31.80;;;25.27;;
12802;SDS011;6465;42.700;23.278;2024-03-17T03:09:20;36.20;;;25.87;;
12802;SDS011;6465;42.700;23.278;2024-03-17T03:11:56;32.60;;;26.20;;
12802;SDS011;6465;42.700;23.278;2024-03-17T03:14:25;187.57;;;122.23;;
12802;SDS011;6465;42.700;23.278;2024-03-17T03:16:52;263.00;;;168.03;;
12802;SDS011;6465;42.700;23.278;2024-03-17T03:19:18;320.37;;;201.30;;
12802;SDS011;6465;42.700;23.278;2024-03-17T03:21:46;194.73;;;137.93;;
12802;SDS011;6465;42.700;23.278;2024-03-17T03:24:13;80.13;;;58.20;;
12802;SDS011;6465;42.700;23.278;2024-03-17T03:26:40;46.13;;;36.17;;
12802;SDS011;6465;42.700;23.278;2024-03-17T03:29:08;26.67;;;20.13;;
12802;SDS011;6465;42.700;23.278;2024-03-17T03:31:37;23.53;;;16.50;;
12802;SDS011;6465;42.700;23.278;2024-03-17T03:34:05;25.47;;;19.17;;
12802;SDS011;6465;42.700;23.278;2024-03-17T03:36:33;21.13;;;17.37;;
12802;SDS011;6465;42.700;23.278;2024-03-17T03:39:00;21.47;;;17.67;;
12802;SDS011;6465;42.700;23.278;2024-03-17T03:41:29;22.40;;;17.53;;
12802;SDS011;6465;42.700;23.278;2024-03-17T03:43:57;26.70;;;17.33;;
12802;SDS011;6465;42.700;23.278;2024-03-17T03:46:24;26.40;;;16.30;;
12802;SDS011;6465;42.700;23.278;2024-03-17T03:48:52;21.77;;;15.83;;
12802;SDS011;6465;42.700;23.278;2024-03-17T03:51:19;22.30;;;16.83;;
12802;SDS011;6465;42.700;23.278;2024-03-17T03:53:46;20.47;;;16.80;;
12802;SDS011;6465;42.700;23.278;2024-03-17T03:56:13;23.03;;;16.63;;
12802;SDS011;6465;42.700;23.278;2024-03-17T03:58:41;21.03;;;16.80;;
12802;SDS011;6465;42.700;23.278;2024-03-17T04:01:11;23.20;;;16.80;;
12802;SDS011;6465;42.700;23.278;2024-03-17T04:03:40;19.60;;;15.93;;
12802;SDS011;6465;42.700;23.278;2024-03-17T04:06:09;18.93;;;15.47;;
12802;SDS011;6465;42.700;23.278;2024-03-17T04:08:38;24.67;;;17.33;;
12802;SDS011;6465;42.700;23.278;2024-03-17T04:11:06;23.50;;;17.63;;
12802;SDS011;6465;42.700;23.278;2024-03-17T04:13:34;27.43;;;21.60;;
12802;SDS011;6465;42.700;23.278;2024-03-17T04:16:03;28.67;;;22.03;;
12802;SDS011;6465;42.700;23.278;2024-03-17T04:18:31;21.33;;;16.93;;
12802;SDS011;6465;42.700;23.278;2024-03-17T04:21:01;22.77;;;16.33;;
12802;SDS011;6465;42.700;23.278;2024-03-17T04:23:30;23.23;;;16.40;;
12802;SDS011;6465;42.700;23.278;2024-03-17T04:25:58;31.07;;;19.87;;
12802;SDS011;6465;42.700;23.278;2024-03-17T04:28:26;38.70;;;25.87;;
12802;SDS011;6465;42.700;23.278;2024-03-17T04:31:01;55.30;;;43.03;;
12802;SDS011;6465;42.700;23.278;2024-03-17T04:33:29;49.10;;;38.30;;
12802;SDS011;6465;42.700;23.278;2024-03-17T04:35:57;43.50;;;30.30;;
12802;SDS011;6465;42.700;23.278;2024-03-17T04:38:24;35.40;;;29.67;;
12802;SDS011;6465;42.700;23.278;2024-03-17T04:40:52;37.37;;;30.20;;
12802;SDS011;6465;42.700;23.278;2024-03-17T04:43:24;41.00;;;32.93;;
12802;SDS011;6465;42.700;23.278;2024-03-17T04:45:58;32.53;;;27.37;;
12802;SDS011;6465;42.700;23.278;2024-03-17T04:48:26;31.27;;;22.37;;
12802;SDS011;6465;42.700;23.278;2024-03-17T04:50:59;31.00;;;24.43;;
12802;SDS011;6465;42.700;23.278;2024-03-17T04:53:27;23.77;;;20.97;;
12802;SDS011;6465;42.700;23.278;2024-03-17T04:56:00;29.33;;;24.47;;
12802;SDS011;6465;42.700;23.278;2024-03-17T04:58:29;39.07;;;30.27;;
12802;SDS011;6465;42.700;23.278;2024-03-17T05:00:56;50.50;;;34.40;;
12802;SDS011;6465;42.700;23.278;2024-03-17T05:03:23;52.97;;;39.90;;
12802;SDS011;6465;42.700;23.278;2024-03-17T05:05:57;81.07;;;52.83;;
12802;SDS011;6465;42.700;23.278;2024-03-17T05:08:26;36.30;;;28.70;;
12802;SDS011;6465;42.700;23.278;2024-03-17T05:10:55;34.70;;;25.43;;
12802;SDS011;6465;42.700;23.278;2024-03-17T05:13:24;31.87;;;26.40;;
12802;SDS011;6465;42.700;23.278;2024-03-17T05:15:51;35.50;;;25.73;;
12802;SDS011;6465;42.700;23.278;2024-03-17T05:18:18;31.07;;;22.80;;
12802;SDS011;6465;42.700;23.278;2024-03-17T05:20:47;38.63;;;25.60;;
12802;SDS011;6465;42.700;23.278;2024-03-17T05:23:24;34.60;;;24.70;;
12802;SDS011;6465;42.700;23.278;2024-03-17T05:25:52;34.87;;;27.40;;
12802;SDS011;6465;42.700;23.278;2024-03-17T05:28:19;40.80;;;28.73;;
12802;SDS011;6465;42.700;23.278;2024-03-17T05:30:47;40.60;;;30.20;;
12802;SDS011;6465;42.700;23.278;2024-03-17T05:33:15;46.33;;;35.27;;
12802;SDS011;6465;42.700;23.278;2024-03-17T05:35:48;62.03;;;43.77;;
12802;SDS011;6465;42.700;23.278;2024-03-17T05:38:15;63.27;;;48.03;;
12802;SDS011;6465;42.700;23.278;2024-03-17T05:40:44;68.93;;;51.97;;
12802;SDS011;6465;42.700;23.278;2024-03-17T05:43:18;91.13;;;59.30;;
12802;SDS011;6465;42.700;23.278;2024-03-17T05:45:45;105.80;;;80.10;;
12802;SDS011;6465;42.700;23.278;2024-03-17T05:48:14;116.13;;;82.40;;
12802;SDS011;6465;42.700;23.278;2024-03-17T05:50:41;98.03;;;73.60;;
12802;SDS011;6465;42.700;23.278;2024-03-17T05:53:08;80.57;;;60.17;;
12802;SDS011;6465;42.700;23.278;2024-03-17T05:55:35;74.37;;;53.10;;
12802;SDS011;6465;42.700;23.278;2024-03-17T05:58:02;66.17;;;45.93;;
12802;SDS011;6465;42.700;23.278;2024-03-17T06:00:29;70.70;;;44.57;;
12802;SDS011;6465;42.700;23.278;2024-03-17T06:02:56;62.17;;;43.40;;
12802;SDS011;6465;42.700;23.278;2024-03-17T06:05:26;57.37;;;39.30;;
12802;SDS011;6465;42.700;23.278;2024-03-17T06:07:53;42.87;;;31.17;;
12802;SDS011;6465;42.700;23.278;2024-03-17T06:10:20;42.77;;;31.03;;
12802;SDS011;6465;42.700;23.278;2024-03-17T06:12:49;38.63;;;26.97;;
12802;SDS011;6465;42.700;23.278;2024-03-17T06:15:17;40.17;;;28.40;;
12802;SDS011;6465;42.700;23.278;2024-03-17T06:17:46;39.65;;;33.47;;
12802;SDS011;6465;42.700;23.278;2024-03-17T06:20:13;35.60;;;29.40;;
12802;SDS011;6465;42.700;23.278;2024-03-17T06:22:41;36.40;;;28.20;;
12802;SDS011;6465;42.700;23.278;2024-03-17T06:25:08;35.27;;;26.90;;
12802;SDS011;6465;42.700;23.278;2024-03-17T06:27:35;27.03;;;20.60;;
12802;SDS011;6465;42.700;23.278;2024-03-17T06:30:02;25.73;;;22.20;;
12802;SDS011;6465;42.700;23.278;2024-03-17T06:32:30;29.20;;;20.97;;
12802;SDS011;6465;42.700;23.278;2024-03-17T06:34:58;26.13;;;21.30;;
12802;SDS011;6465;42.700;23.278;2024-03-17T06:37:25;29.07;;;22.27;;
12802;SDS011;6465;42.700;23.278;2024-03-17T06:39:53;27.93;;;20.97;;
12802;SDS011;6465;42.700;23.278;2024-03-17T06:42:20;29.50;;;23.07;;
12802;SDS011;6465;42.700;23.278;2024-03-17T06:44:47;27.93;;;21.93;;
12802;SDS011;6465;42.700;23.278;2024-03-17T06:47:14;26.67;;;22.37;;
12802;SDS011;6465;42.700;23.278;2024-03-17T06:49:41;28.93;;;22.23;;
12802;SDS011;6465;42.700;23.278;2024-03-17T06:52:09;30.97;;;21.47;;
12802;SDS011;6465;42.700;23.278;2024-03-17T06:54:36;22.43;;;19.17;;
12802;SDS011;6465;42.700;23.278;2024-03-17T06:57:05;25.47;;;19.63;;
12802;SDS011;6465;42.700;23.278;2024-03-17T06:59:32;28.30;;;20.10;;
12802;SDS011;6465;42.700;23.278;2024-03-17T07:01:59;24.70;;;19.43;;
12802;SDS011;6465;42.700;23.278;2024-03-17T07:04:26;24.70;;;18.90;;
12802;SDS011;6465;42.700;23.278;2024-03-17T07:06:53;21.40;;;18.57;;
12802;SDS011;6465;42.700;23.278;2024-03-17T07:09:20;20.03;;;17.00;;
12802;SDS011;6465;42.700;23.278;2024-03-17T07:11:47;18.43;;;16.33;;
12802;SDS011;6465;42.700;23.278;2024-03-17T07:14:17;24.73;;;17.10;;
12802;SDS011;6465;42.700;23.278;2024-03-17T07:16:44;20.10;;;16.93;;
12802;SDS011;6465;42.700;23.278;2024-03-17T07:19:11;17.87;;;15.80;;
12802;SDS011;6465;42.700;23.278;2024-03-17T07:21:38;18.87;;;16.53;;
12802;SDS011;6465;42.700;23.278;2024-03-17T07:24:05;21.40;;;16.13;;
12802;SDS011;6465;42.700;23.278;2024-03-17T07:26:32;19.87;;;14.80;;
12802;SDS011;6465;42.700;23.278;2024-03-17T07:28:59;17.17;;;15.23;;
12802;SDS011;6465;42.700;23.278;2024-03-17T07:31:28;15.47;;;13.87;;
12802;SDS011;6465;42.700;23.278;2024-03-17T07:33:55;17.50;;;14.57;;
12802;SDS011;6465;42.700;23.278;2024-03-17T07:36:22;16.60;;;14.60;;
12802;SDS011;6465;42.700;23.278;2024-03-17T07:38:50;17.47;;;14.43;;
12802;SDS011;6465;42.700;23.278;2024-03-17T07:41:17;16.23;;;14.47;;
12802;SDS011;6465;42.700;23.278;2024-03-17T07:43:45;18.80;;;14.57;;
12802;SDS011;6465;42.700;23.278;2024-03-17T07:46:12;17.83;;;14.33;;
12802;SDS011;6465;42.700;23.278;2024-03-17T07:48:41;18.77;;;14.87;;
12802;SDS011;6465;42.700;23.278;2024-03-17T07:51:09;18.20;;;14.07;;
12802;SDS011;6465;42.700;23.278;2024-03-17T07:53:38;18.07;;;14.83;;
12802;SDS011;6465;42.700;23.278;2024-03-17T07:56:06;14.63;;;13.07;;
12802;SDS011;6465;42.700;23.278;2024-03-17T07:58:35;17.60;;;13.40;;
12802;SDS011;6465;42.700;23.278;2024-03-17T08:01:03;16.07;;;13.40;;
12802;SDS011;6465;42.700;23.278;2024-03-17T08:03:31;13.47;;;12.17;;
12802;SDS011;6465;42.700;23.278;2024-03-17T08:06:02;13.67;;;11.73;;
12802;SDS011;6465;42.700;23.278;2024-03-17T08:08:30;12.97;;;11.23;;
12802;SDS011;6465;42.700;23.278;2024-03-17T08:10:57;14.70;;;12.03;;
12802;SDS011;6465;42.700;23.278;2024-03-17T08:13:25;12.27;;;10.97;;
12802;SDS011;6465;42.700;23.278;2024-03-17T08:15:55;14.67;;;11.33;;
12802;SDS011;6465;42.700;23.278;2024-03-17T08:18:24;14.83;;;11.93;;
12802;SDS011;6465;42.700;23.278;2024-03-17T08:20:52;13.57;;;11.30;;
12802;SDS011;6465;42.700;23.278;2024-03-17T08:23:21;14.23;;;11.47;;
12802;SDS011;6465;42.700;23.278;2024-03-17T08:25:51;12.87;;;11.00;;
12802;SDS011;6465;42.700;23.278;2024-03-17T08:28:19;13.43;;;11.73;;
12802;SDS011;6465;42.700;23.278;2024-03-17T08:30:50;12.40;;;11.10;;
12802;SDS011;6465;42.700;23.278;2024-03-17T08:33:18;47.83;;;37.70;;
12802;SDS011;6465;42.700;23.278;2024-03-17T08:35:52;75.70;;;56.77;;
12802;SDS011;6465;42.700;23.278;2024-03-17T08:38:21;15.50;;;12.83;;
12802;SDS011;6465;42.700;23.278;2024-03-17T08:40:48;12.63;;;11.33;;
12802;SDS011;6465;42.700;23.278;2024-03-17T08:43:15;12.50;;;11.27;;
12802;SDS011;6465;42.700;23.278;2024-03-17T08:45:43;13.30;;;11.73;;
12802;SDS011;6465;42.700;23.278;2024-03-17T08:48:10;13.53;;;12.17;;
12802;SDS011;6465;42.700;23.278;2024-03-17T08:50:37;12.50;;;11.10;;
12802;SDS011;6465;42.700;23.278;2024-03-17T08:53:05;12.23;;;10.93;;
12802;SDS011;6465;42.700;23.278;2024-03-17T08:55:34;13.80;;;12.00;;
12802;SDS011;6465;42.700;23.278;2024-03-17T08:58:01;13.23;;;11.93;;
12802;SDS011;6465;42.700;23.278;2024-03-17T09:00:28;19.60;;;13.03;;
12802;SDS011;6465;42.700;23.278;2024-03-17T09:02:55;16.57;;;13.13;;
12802;SDS011;6465;42.700;23.278;2024-03-17T09:05:23;15.90;;;14.07;;
12802;SDS011;6465;42.700;23.278;2024-03-17T09:07:50;17.27;;;14.90;;
12802;SDS011;6465;42.700;23.278;2024-03-17T09:10:17;15.67;;;13.63;;
12802;SDS011;6465;42.700;23.278;2024-03-17T09:12:45;20.00;;;13.97;;
12802;SDS011;6465;42.700;23.278;2024-03-17T09:15:12;14.40;;;12.60;;
12802;SDS011;6465;42.700;23.278;2024-03-17T09:17:39;14.57;;;12.25;;
12802;SDS011;6465;42.700;23.278;2024-03-17T09:20:07;19.43;;;12.80;;
12802;SDS011;6465;42.700;23.278;2024-03-17T09:22:39;11.90;;;10.43;;
12802;SDS011;6465;42.700;23.278;2024-03-17T09:25:07;11.53;;;10.43;;
12802;SDS011;6465;42.700;23.278;2024-03-17T09:27:34;11.63;;;10.40;;
12802;SDS011;6465;42.700;23.278;2024-03-17T09:30:04;11.48;;;9.95;;
12802;SDS011;6465;42.700;23.278;2024-03-17T09:32:34;11.40;;;9.73;;
12802;SDS011;6465;42.700;23.278;2024-03-17T09:35:01;9.57;;;8.60;;
12802;SDS011;6465;42.700;23.278;2024-03-17T09:37:28;9.70;;;8.43;;
12802;SDS011;6465;42.700;23.278;2024-03-17T09:39:56;8.03;;;7.30;;
12802;SDS011;6465;42.700;23.278;2024-03-17T09:42:25;8.93;;;8.02;;
12802;SDS011;6465;42.700;23.278;2024-03-17T09:44:53;7.30;;;6.60;;
12802;SDS011;6465;42.700;23.278;2024-03-17T09:47:23;8.03;;;7.33;;
12802;SDS011;6465;42.700;23.278;2024-03-17T09:49:51;44.20;;;34.47;;
12802;SDS011;6465;42.700;23.278;2024-03-17T09:52:19;43.42;;;38.15;;
12802;SDS011;6465;42.700;23.278;2024-03-17T09:54:50;7.60;;;6.88;;
12802;SDS011;6465;42.700;23.278;2024-03-17T09:57:22;7.80;;;7.05;;
12802;SDS011;6465;42.700;23.278;2024-03-17T09:59:51;6.75;;;6.15;;
12802;SDS011;6465;42.700;23.278;2024-03-17T10:02:19;7.57;;;6.47;;
12802;SDS011;6465;42.700;23.278;2024-03-17T10:04:48;6.28;;;5.68;;
12802;SDS011;6465;42.700;23.278;2024-03-17T10:07:15;7.28;;;6.55;;
12802;SDS011;6465;42.700;23.278;2024-03-17T10:09:42;5.80;;;5.30;;
12802;SDS011;6465;42.700;23.278;2024-03-17T10:12:26;5.40;;;4.97;;
12802;SDS011;6465;42.700;23.278;2024-03-17T10:14:59;7.78;;;6.22;;
12802;SDS011;6465;42.700;23.278;2024-03-17T10:17:30;9.40;;;6.18;;
12802;SDS011;6465;42.700;23.278;2024-03-17T10:20:18;6.15;;;5.65;;
12802;SDS011;6465;42.700;23.278;2024-03-17T10:22:58;7.53;;;5.20;;
12802;SDS011;6465;42.700;23.278;2024-03-17T10:25:25;4.93;;;4.53;;
12802;SDS011;6465;42.700;23.278;2024-03-17T10:27:53;5.80;;;5.18;;
12802;SDS011;6465;42.700;23.278;2024-03-17T10:30:20;5.72;;;5.22;;
12802;SDS011;6465;42.700;23.278;2024-03-17T10:32:53;6.38;;;5.85;;
12802;SDS011;6465;42.700;23.278;2024-03-17T10:35:28;6.45;;;5.93;;
12802;SDS011;6465;42.700;23.278;2024-03-17T10:37:57;5.85;;;5.38;;
12802;SDS011;6465;42.700;23.278;2024-03-17T10:40:25;6.30;;;5.43;;
12802;SDS011;6465;42.700;23.278;2024-03-17T10:42:54;5.70;;;5.22;;
12802;SDS011;6465;42.700;23.278;2024-03-17T10:45:22;6.03;;;5.53;;
12802;SDS011;6465;42.700;23.278;2024-03-17T10:47:50;5.72;;;5.22;;
12802;SDS011;6465;42.700;23.278;2024-03-17T10:50:19;5.55;;;5.10;;
12802;SDS011;6465;42.700;23.278;2024-03-17T10:52:49;5.75;;;5.03;;
12802;SDS011;6465;42.700;23.278;2024-03-17T10:55:20;66.88;;;60.42;;
12802;SDS011;6465;42.700;23.278;2024-03-17T10:57:49;8.45;;;7.65;;
12802;SDS011;6465;42.700;23.278;2024-03-17T11:00:17;20.48;;;17.65;;
12802;SDS011;6465;42.700;23.278;2024-03-17T11:02:47;9.98;;;6.57;;
12802;SDS011;6465;42.700;23.278;2024-03-17T11:05:17;6.53;;;5.90;;
12802;SDS011;6465;42.700;23.278;2024-03-17T11:07:49;5.43;;;5.00;;
12802;SDS011;6465;42.700;23.278;2024-03-17T11:10:19;6.20;;;4.97;;
12802;SDS011;6465;42.700;23.278;2024-03-17T11:12:50;5.28;;;4.88;;
12802;SDS011;6465;42.700;23.278;2024-03-17T11:18:29;4.40;;;4.10;;
12802;SDS011;6465;42.700;23.278;2024-03-17T11:21:05;3.78;;;3.47;;
12802;SDS011;6465;42.700;23.278;2024-03-17T11:23:37;4.10;;;3.80;;
12802;SDS011;6465;42.700;23.278;2024-03-17T11:26:05;3.53;;;3.33;;
12802;SDS011;6465;42.700;23.278;2024-03-17T11:28:46;4.40;;;4.00;;
12802;SDS011;6465;42.700;23.278;2024-03-17T11:37:10;24.40;;;20.88;;
12802;SDS011;6465;42.700;23.278;2024-03-17T11:43:03;4.82;;;4.53;;
12802;SDS011;6465;42.700;23.278;2024-03-17T11:45:31;4.40;;;4.00;;
12802;SDS011;6465;42.700;23.278;2024-03-17T11:47:57;3.90;;;3.70;;
12802;SDS011;6465;42.700;23.278;2024-03-17T11:50:31;6.30;;;4.22;;
12802;SDS011;6465;42.700;23.278;2024-03-17T11:52:58;4.53;;;4.22;;
12802;SDS011;6465;42.700;23.278;2024-03-17T11:55:25;4.20;;;3.90;;
12802;SDS011;6465;42.700;23.278;2024-03-17T11:57:55;4.25;;;3.88;;
12802;SDS011;6465;42.700;23.278;2024-03-17T12:00:24;4.85;;;4.45;;
12802;SDS011;6465;42.700;23.278;2024-03-17T12:02:51;4.85;;;4.45;;
12802;SDS011;6465;42.700;23.278;2024-03-17T12:05:18;4.63;;;4.28;;
12802;SDS011;6465;42.700;23.278;2024-03-17T12:07:46;5.25;;;4.75;;
12802;SDS011;6465;42.700;23.278;2024-03-17T12:10:13;5.38;;;4.93;;
12802;SDS011;6465;42.700;23.278;2024-03-17T12:12:39;4.53;;;4.22;;
12802;SDS011;6465;42.700;23.278;2024-03-17T12:15:16;4.57;;;4.18;;
12802;SDS011;6465;42.700;23.278;2024-03-17T12:17:46;4.50;;;4.20;;
12802;SDS011;6465;42.700;23.278;2024-03-17T12:20:16;4.43;;;4.07;;
12802;SDS011;6465;42.700;23.278;2024-03-17T12:22:43;4.32;;;4.03;;
12802;SDS011;6465;42.700;23.278;2024-03-17T12:25:15;4.72;;;4.32;;
12802;SDS011;6465;42.700;23.278;2024-03-17T12:27:43;5.25;;;4.65;;
12802;SDS011;6465;42.700;23.278;2024-03-17T12:30:12;5.47;;;4.97;;
12802;SDS011;6465;42.700;23.278;2024-03-17T12:32:38;6.43;;;5.00;;
12802;SDS011;6465;42.700;23.278;2024-03-17T12:35:11;5.38;;;4.82;;
12802;SDS011;6465;42.700;23.278;2024-03-17T12:37:40;5.88;;;5.40;;
12802;SDS011;6465;42.700;23.278;2024-03-17T12:40:17;6.80;;;5.22;;
12802;SDS011;6465;42.700;23.278;2024-03-17T12:42:47;29.02;;;25.92;;
12802;SDS011;6465;42.700;23.278;2024-03-17T12:45:19;20.45;;;17.73;;
12802;SDS011;6465;42.700;23.278;2024-03-17T12:47:47;6.22;;;5.72;;
12802;SDS011;6465;42.700;23.278;2024-03-17T12:50:16;5.50;;;5.10;;
12802;SDS011;6465;42.700;23.278;2024-03-17T12:52:50;6.17;;;5.57;;
12802;SDS011;6465;42.700;23.278;2024-03-17T12:55:19;6.85;;;6.15;;
12802;SDS011;6465;42.700;23.278;2024-03-17T12:58:07;6.00;;;5.50;;
12802;SDS011;6465;42.700;23.278;2024-03-17T13:00:59;6.38;;;5.78;;
12802;SDS011;6465;42.700;23.278;2024-03-17T13:03:27;5.25;;;4.80;;
12802;SDS011;6465;42.700;23.278;2024-03-17T13:05:58;5.90;;;5.13;;
12802;SDS011;6465;42.700;23.278;2024-03-17T13:08:25;5.68;;;5.20;;
12802;SDS011;6465;42.700;23.278;2024-03-17T13:10:52;5.97;;;5.47;;
12802;SDS011;6465;42.700;23.278;2024-03-17T13:13:19;6.45;;;5.80;;
12802;SDS011;6465;42.700;23.278;2024-03-17T13:15:46;6.63;;;6.03;;
12802;SDS011;6465;42.700;23.278;2024-03-17T13:18:15;6.50;;;5.90;;
12802;SDS011;6465;42.700;23.278;2024-03-17T13:20:44;9.40;;;6.68;;
12802;SDS011;6465;42.700;23.278;2024-03-17T13:23:13;6.47;;;5.90;;
12802;SDS011;6465;42.700;23.278;2024-03-17T13:25:40;6.85;;;6.15;;
12802;SDS011;6465;42.700;23.278;2024-03-17T13:28:08;6.53;;;5.93;;
12802;SDS011;6465;42.700;23.278;2024-03-17T13:30:36;7.50;;;6.80;;
12802;SDS011;6465;42.700;23.278;2024-03-17T13:33:05;7.30;;;6.57;;
12802;SDS011;6465;42.700;23.278;2024-03-17T13:35:35;7.60;;;6.88;;
12802;SDS011;6465;42.700;23.278;2024-03-17T13:38:04;6.82;;;6.22;;
12802;SDS011;6465;42.700;23.278;2024-03-17T13:40:34;7.38;;;6.68;;
12802;SDS011;6465;42.700;23.278;2024-03-17T13:43:03;7.65;;;6.85;;
12802;SDS011;6465;42.700;23.278;2024-03-17T13:45:31;7.60;;;6.90;;
12802;SDS011;6465;42.700;23.278;2024-03-17T13:48:05;6.50;;;5.90;;
12802;SDS011;6465;42.700;23.278;2024-03-17T13:50:35;6.45;;;5.78;;
12802;SDS011;6465;42.700;23.278;2024-03-17T13:53:03;6.82;;;6.10;;
12802;SDS011;6465;42.700;23.278;2024-03-17T13:55:30;6.45;;;5.88;;
12802;SDS011;6465;42.700;23.278;2024-03-17T13:58:00;7.15;;;6.55;;
12802;SDS011;6465;42.700;23.278;2024-03-17T14:00:27;7.15;;;6.47;;
12802;SDS011;6465;42.700;23.278;2024-03-17T14:02:56;7.65;;;6.78;;
12802;SDS011;6465;42.700;23.278;2024-03-17T14:05:24;6.47;;;5.90;;
12802;SDS011;6465;42.700;23.278;2024-03-17T14:07:52;6.47;;;5.88;;
12802;SDS011;6465;42.700;23.278;2024-03-17T14:10:21;7.32;;;6.25;;
12802;SDS011;6465;42.700;23.278;2024-03-17T14:12:49;7.65;;;6.55;;
12802;SDS011;6465;42.700;23.278;2024-03-17T14:15:20;6.88;;;6.28;;
12802;SDS011;6465;42.700;23.278;2024-03-17T14:17:47;7.45;;;6.43;;
12802;SDS011;6465;42.700;23.278;2024-03-17T14:20:15;51.97;;;39.40;;
12802;SDS011;6465;42.700;23.278;2024-03-17T14:22:44;46.75;;;36.58;;
12802;SDS011;6465;42.700;23.278;2024-03-17T14:25:14;17.25;;;15.70;;
12802;SDS011;6465;42.700;23.278;2024-03-17T14:27:43;7.53;;;6.82;;
12802;SDS011;6465;42.700;23.278;2024-03-17T14:30:14;6.88;;;6.28;;
12802;SDS011;6465;42.700;23.278;2024-03-17T14:32:44;6.82;;;6.22;;
12802;SDS011;6465;42.700;23.278;2024-03-17T14:35:12;7.03;;;6.43;;
12802;SDS011;6465;42.700;23.278;2024-03-17T14:37:40;7.18;;;6.57;;
12802;SDS011;6465;42.700;23.278;2024-03-17T14:40:12;7.40;;;6.70;;
12802;SDS011;6465;42.700;23.278;2024-03-17T14:42:45;7.25;;;6.55;;
12802;SDS011;6465;42.700;23.278;2024-03-17T14:45:12;7.32;;;6.55;;
12802;SDS011;6465;42.700;23.278;2024-03-17T14:47:40;9.55;;;8.27;;